Time;durP1;ratioP1;P1;durP2;ratioP2;P2;SDS_P1;SDS_P2;PMS_P1;PMS_P2;Temp;Humidity;BMP_temperature;BMP_pressure;BME280_temperature;BME280_humidity;BME280_pressure;Samples;Min_cycle;Max_cycle;Signal;HPM_P1;HPM_P2
2023/03/19 00:00:44;;;;;;;;;;;;;;;10.7;91.00879;101075.6;;;;-71
2023/03/19 00:05:44;;;;;;;;;;;;;;;10.7;90.86523;101084.3;;;;-73
2023/03/19 00:07:50;;;;;;;6.8;3.6;;;;;;;;;;;;;-75
2023/03/19 00:10:47;;;;;;;;;;;;;;;10.69;91.74609;101093.1;;;;-74
2023/03/19 00:15:44;;;;;;;;;;;;;;;10.69;91.48145;101099.6;;;;-74
2023/03/19 00:20:45;;;;;;;;;;;;;;;10.67;91.32227;101099.8;;;;-74
2023/03/19 00:25:44;;;;;;;;;;;;;;;10.64;91.21777;101097.7;;;;-73
2023/03/19 00:30:44;;;;;;;;;;;;;;;10.62;91.72168;101103.8;;;;-74
2023/03/19 00:56:48;;;;;;;;;;;;;;;10.52;92.80273;101117.4;;;;-73
2023/03/19 01:01:50;;;;;;;;;;;;;;;10.49;91.95898;101118.2;;;;-74
2023/03/19 01:06:48;;;;;;;;;;;;;;;10.49;92.10059;101120.4;;;;-75
2023/03/19 01:07:53;;;;;;;10.4;5.9;;;;;;;;;;;;;-74
2023/03/19 01:11:48;;;;;;;;;;;;;;;10.48;92.17578;101120.1;;;;-74
2023/03/19 01:16:48;;;;;;;;;;;;;;;10.48;92.41797;101118.5;;;;-74
2023/03/19 01:21:48;;;;;;;;;;;;;;;10.47;92.21777;101115.3;;;;-75
2023/03/19 01:26:51;;;;;;;;;;;;;;;10.44;92.46387;101111.1;;;;-74
2023/03/19 01:31:48;;;;;;;;;;;;;;;10.43;92.74902;101111.9;;;;-74
2023/03/19 01:36:48;;;;;;;;;;;;;;;10.42;92.09863;101117.1;;;;-74
2023/03/19 01:37:56;;;;;;;13.5;8.1;;;;;;;;;;;;;-75
2023/03/19 01:41:48;;;;;;;;;;;;;;;10.42;92.16211;101120.9;;;;-74
2023/03/19 01:46:48;;;;;;;;;;;;;;;10.41;92.84375;101117.9;;;;-73
2023/03/19 01:51:49;;;;;;;;;;;;;;;10.38;92.36426;101121.3;;;;-73
2023/03/19 01:56:51;;;;;;;;;;;;;;;10.35;92.30566;101116.5;;;;-74
2023/03/19 02:01:53;;;;;;;;;;;;;;;10.35;92.3252;101121.9;;;;-74
2023/03/19 02:06:48;;;;;;;;;;;;;;;10.33;91.95801;101125.3;;;;-74
2023/03/19 02:07:58;;;;;;;15.7;9.1;;;;;;;;;;;;;-73
2023/03/19 02:11:49;;;;;;;;;;;;;;;10.32;92.2627;101117.8;;;;-75
2023/03/19 02:16:48;;;;;;;;;;;;;;;10.27;92.07715;101125.9;;;;-74
2023/03/19 02:21:48;;;;;;;;;;;;;;;10.19;92.49121;101132.8;;;;-74
2023/03/19 02:26:49;;;;;;;;;;;;;;;10.1;92.23828;101133.1;;;;-75
2023/03/19 02:31:48;;;;;;;;;;;;;;;9.97;91.69434;101126.5;;;;-74
2023/03/19 02:36:50;;;;;;;;;;;;;;;9.85;92.29688;101132.1;;;;-74
2023/03/19 02:37:56;;;;;;;14.9;7.9;;;;;;;;;;;;;-74
2023/03/19 02:41:48;;;;;;;;;;;;;;;9.72;92.11426;101144.7;;;;-75
2023/03/19 02:46:48;;;;;;;;;;;;;;;9.58;92.35156;101139.7;;;;-73
2023/03/19 02:56:49;;;;;;;;;;;;;;;9.37;92.29199;101143.8;;;;-74
2023/03/19 03:01:48;;;;;;;;;;;;;;;9.26;92.34766;101145;;;;-73
2023/03/19 03:06:48;;;;;;;;;;;;;;;9.15;92.39063;101148.1;;;;-74
2023/03/19 03:07:58;;;;;;;10.6;6.2;;;;;;;;;;;;;-74
2023/03/19 03:11:49;;;;;;;;;;;;;;;9.07;93.10938;101144.8;;;;-74
2023/03/19 03:16:48;;;;;;;;;;;;;;;8.97;93.4502;101137.1;;;;-74
2023/03/19 03:21:50;;;;;;;;;;;;;;;8.9;92.5459;101146.2;;;;-75
2023/03/19 03:26:48;;;;;;;;;;;;;;;8.86;92.90039;101150.1;;;;-75
2023/03/19 03:31:49;;;;;;;;;;;;;;;8.77;92.68359;101149.6;;;;-74
2023/03/19 03:36:48;;;;;;;;;;;;;;;8.73;92.68652;101153.2;;;;-75
2023/03/19 03:37:59;;;;;;;14.6;6.3;;;;;;;;;;;;;-74
2023/03/19 03:41:48;;;;;;;;;;;;;;;8.63;92.99414;101151.4;;;;-75
2023/03/19 03:46:50;;;;;;;;;;;;;;;8.59;92.35938;101151.8;;;;-74
2023/03/19 03:51:48;;;;;;;;;;;;;;;8.51;93.01367;101145.7;;;;-75
2023/03/19 03:56:50;;;;;;;;;;;;;;;8.48;92.7207;101141.1;;;;-75
2023/03/19 04:01:49;;;;;;;;;;;;;;;8.39;92.62598;101146.4;;;;-74
2023/03/19 04:06:48;;;;;;;;;;;;;;;8.36;92.77148;101149.5;;;;-74
2023/03/19 04:08:00;;;;;;;12.4;6;;;;;;;;;;;;;-74
2023/03/19 04:11:56;;;;;;;;;;;;;;;8.25;92.81445;101155.3;;;;-75
2023/03/19 04:16:48;;;;;;;;;;;;;;;8.21;92.87207;101159.2;;;;-74
2023/03/19 04:21:48;;;;;;;;;;;;;;;8.17;92.89551;101170.9;;;;-75
2023/03/19 04:26:49;;;;;;;;;;;;;;;8.17;92.9502;101171.1;;;;-74
2023/03/19 04:31:51;;;;;;;;;;;;;;;8.18;93.22656;101178;;;;-74
2023/03/19 04:36:48;;;;;;;;;;;;;;;8.18;92.83203;101173;;;;-74
2023/03/19 04:38:01;;;;;;;13.6;6.4;;;;;;;;;;;;;-74
2023/03/19 04:41:48;;;;;;;;;;;;;;;8.22;93.16895;101180.4;;;;-75
2023/03/19 04:46:50;;;;;;;;;;;;;;;8.25;93.05371;101183.9;;;;-74
2023/03/19 04:51:48;;;;;;;;;;;;;;;8.25;93.71094;101190;;;;-75
2023/03/19 04:56:50;;;;;;;;;;;;;;;8.28;93.56738;101196.3;;;;-74
2023/03/19 05:01:48;;;;;;;;;;;;;;;8.32;93.79297;101203.3;;;;-75
2023/03/19 05:06:49;;;;;;;;;;;;;;;8.34;93.77734;101206;;;;-74
2023/03/19 05:08:02;;;;;;;22.6;10.7;;;;;;;;;;;;;-74
2023/03/19 05:11:48;;;;;;;;;;;;;;;8.35;93.93262;101206.5;;;;-75
2023/03/19 05:16:47;;;;;;;;;;;;;;;8.36;94.20996;101209.8;;;;-74
2023/03/19 05:21:48;;;;;;;;;;;;;;;8.39;93.90723;101208.4;;;;-73
2023/03/19 05:26:48;;;;;;;;;;;;;;;8.4;93.4834;101212.5;;;;-73
2023/03/19 05:31:48;;;;;;;;;;;;;;;8.39;93.87402;101215.7;;;;-75
2023/03/19 05:36:51;;;;;;;;;;;;;;;8.41;94.11035;101225.1;;;;-74
2023/03/19 05:38:03;;;;;;;27.5;12.9;;;;;;;;;;;;;-73
2023/03/19 05:41:48;;;;;;;;;;;;;;;8.42;93.81445;101228.1;;;;-74
2023/03/19 05:46:48;;;;;;;;;;;;;;;8.45;94.12695;101234.1;;;;-75
2023/03/19 05:51:48;;;;;;;;;;;;;;;8.45;93.96484;101247.9;;;;-74
2023/03/19 05:56:48;;;;;;;;;;;;;;;8.46;94.30664;101255.6;;;;-73
2023/03/19 06:01:48;;;;;;;;;;;;;;;8.45;94.10547;101251.4;;;;-75
2023/03/19 06:06:48;;;;;;;;;;;;;;;8.45;93.42969;101263.3;;;;-75
2023/03/19 06:08:05;;;;;;;26.8;12.5;;;;;;;;;;;;;-75
2023/03/19 06:11:48;;;;;;;;;;;;;;;8.46;94.20801;101260.9;;;;-74
2023/03/19 06:16:48;;;;;;;;;;;;;;;8.48;93.46582;101258.1;;;;-74
2023/03/19 06:21:50;;;;;;;;;;;;;;;8.48;94.33398;101266.3;;;;-74
2023/03/19 06:26:48;;;;;;;;;;;;;;;8.52;94.46094;101276.7;;;;-74
2023/03/19 06:31:48;;;;;;;;;;;;;;;8.52;93.67285;101275.1;;;;-75
2023/03/19 06:36:48;;;;;;;;;;;;;;;8.54;93.4248;101286.8;;;;-74
2023/03/19 06:38:08;;;;;;;30.1;12.9;;;;;;;;;;;;;-74
2023/03/19 06:41:50;;;;;;;;;;;;;;;8.51;93.24414;101297.3;;;;-75
2023/03/19 06:46:48;;;;;;;;;;;;;;;8.52;93.79199;101303.2;;;;-74
2023/03/19 06:51:48;;;;;;;;;;;;;;;8.51;94.30762;101313.5;;;;-74
2023/03/19 06:56:47;;;;;;;;;;;;;;;8.48;93.96191;101328;;;;-74
2023/03/19 07:01:48;;;;;;;;;;;;;;;8.47;94.65723;101329.1;;;;-74
2023/03/19 07:06:48;;;;;;;;;;;;;;;8.47;94.83496;101332.4;;;;-73
2023/03/19 07:08:10;;;;;;;27.8;10.7;;;;;;;;;;;;;-74
2023/03/19 07:11:50;;;;;;;;;;;;;;;8.47;94.67285;101336.3;;;;-74
2023/03/19 07:16:48;;;;;;;;;;;;;;;8.53;94.57227;101344.8;;;;-74
2023/03/19 07:21:48;;;;;;;;;;;;;;;8.57;93.75098;101350;;;;-73
2023/03/19 07:26:49;;;;;;;;;;;;;;;8.61;94.27441;101355.1;;;;-73
2023/03/19 07:31:53;;;;;;;;;;;;;;;8.65;93.4375;101355.8;;;;-73
2023/03/19 07:36:48;;;;;;;;;;;;;;;8.71;93.78906;101354.4;;;;-74
2023/03/19 07:38:07;;;;;;;23.1;9.3;;;;;;;;;;;;;-75
2023/03/19 07:41:48;;;;;;;;;;;;;;;8.75;94.3457;101366.1;;;;-75
2023/03/19 07:46:48;;;;;;;;;;;;;;;8.8;94.38086;101376.1;;;;-74
2023/03/19 07:51:48;;;;;;;;;;;;;;;8.83;94.69434;101381.6;;;;-75
2023/03/19 07:56:48;;;;;;;;;;;;;;;8.87;93.97852;101382.4;;;;-75
2023/03/19 08:01:48;;;;;;;;;;;;;;;8.92;93.8125;101381.7;;;;-73
2023/03/19 08:06:48;;;;;;;;;;;;;;;8.96;93.31738;101382.8;;;;-74
2023/03/19 08:08:08;;;;;;;21.7;8.7;;;;;;;;;;;;;-74
2023/03/19 08:11:49;;;;;;;;;;;;;;;9.01;94.16309;101381.9;;;;-73
2023/03/19 08:16:48;;;;;;;;;;;;;;;9.12;94.59082;101385.7;;;;-75
2023/03/19 08:21:48;;;;;;;;;;;;;;;9.19;95.1123;101392;;;;-75
2023/03/19 08:26:48;;;;;;;;;;;;;;;9.24;94.0127;101403.6;;;;-75
2023/03/19 08:31:48;;;;;;;;;;;;;;;9.29;95.64941;101411.4;;;;-74
2023/03/19 08:36:47;;;;;;;;;;;;;;;9.33;95.35254;101423;;;;-74
2023/03/19 08:38:09;;;;;;;22.6;8.5;;;;;;;;;;;;;-75
2023/03/19 08:41:47;;;;;;;;;;;;;;;9.36;95.11621;101429.3;;;;-75
2023/03/19 08:46:47;;;;;;;;;;;;;;;9.4;95.51953;101431.2;;;;-74
2023/03/19 08:51:48;;;;;;;;;;;;;;;9.43;95.92285;101427.7;;;;-74
2023/03/19 08:56:48;;;;;;;;;;;;;;;9.5;96.60938;101432.4;;;;-74
2023/03/19 09:01:48;;;;;;;;;;;;;;;9.58;96.31738;101441.8;;;;-74
2023/03/19 09:06:50;;;;;;;;;;;;;;;9.62;96.76758;101448;;;;-73
2023/03/19 09:08:10;;;;;;;22.8;8.9;;;;;;;;;;;;;-73
2023/03/19 09:11:47;;;;;;;;;;;;;;;9.62;96.54785;101452.7;;;;-75
2023/03/19 09:16:47;;;;;;;;;;;;;;;9.65;96.78223;101452.5;;;;-74
2023/03/19 09:21:49;;;;;;;;;;;;;;;9.66;95.87402;101455.1;;;;-74
2023/03/19 09:26:48;;;;;;;;;;;;;;;9.68;96.8252;101469.6;;;;-75
2023/03/19 09:31:47;;;;;;;;;;;;;;;9.73;96.9873;101471.5;;;;-75
2023/03/19 09:36:48;;;;;;;;;;;;;;;9.76;96.75391;101477.3;;;;-73
2023/03/19 09:38:12;;;;;;;29;11;;;;;;;;;;;;;-74
2023/03/19 09:41:53;;;;;;;;;;;;;;;9.78;96.83691;101481.5;;;;-74
2023/03/19 09:46:51;;;;;;;;;;;;;;;9.83;96.9873;101481.4;;;;-75
2023/03/19 09:51:53;;;;;;;;;;;;;;;9.87;97.06348;101488;;;;-73
2023/03/19 09:56:48;;;;;;;;;;;;;;;9.91;97.7334;101492.1;;;;-74
2023/03/19 10:01:52;;;;;;;;;;;;;;;9.98;98.15332;101494.8;;;;-74
2023/03/19 10:06:48;;;;;;;;;;;;;;;10.04;97.93555;101495.3;;;;-74
2023/03/19 10:08:25;;;;;;;33.4;11.3;;;;;;;;;;;;;-74
2023/03/19 10:11:57;;;;;;;;;;;;;;;10.08;97.82422;101499.1;;;;-74
2023/03/19 10:16:58;;;;;;;;;;;;;;;10.14;97.375;101505.2;;;;-74
2023/03/19 10:21:50;;;;;;;;;;;;;;;10.17;97.5498;101512.9;;;;-74
2023/03/19 10:26:48;;;;;;;;;;;;;;;10.18;97.69238;101506;;;;-74
2023/03/19 10:31:52;;;;;;;;;;;;;;;10.22;97.09766;101512.7;;;;-74
2023/03/19 10:36:48;;;;;;;;;;;;;;;10.29;97.41797;101512.6;;;;-75
2023/03/19 10:38:21;;;;;;;36.8;11.6;;;;;;;;;;;;;-74
2023/03/19 10:42:04;;;;;;;;;;;;;;;10.33;97.47461;101521.5;;;;-74
2023/03/19 10:46:47;;;;;;;;;;;;;;;10.37;97.29688;101522.9;;;;-75
2023/03/19 10:51:49;;;;;;;;;;;;;;;10.4;97.11426;101521.5;;;;-74
2023/03/19 10:56:48;;;;;;;;;;;;;;;10.46;96.34668;101523.7;;;;-73
2023/03/19 11:01:47;;;;;;;;;;;;;;;10.51;96.44531;101526.2;;;;-74
2023/03/19 11:06:51;;;;;;;;;;;;;;;10.55;95.6709;101536.2;;;;-73
2023/03/19 11:08:21;;;;;;;37.4;11.9;;;;;;;;;;;;;-74
2023/03/19 11:11:49;;;;;;;;;;;;;;;10.58;95.86621;101541.8;;;;-74
2023/03/19 11:16:59;;;;;;;;;;;;;;;10.61;95.87207;101543.6;;;;-74
2023/03/19 11:21:56;;;;;;;;;;;;;;;10.6;96.1123;101539.4;;;;-74
2023/03/19 11:26:57;;;;;;;;;;;;;;;10.62;96.07422;101546.9;;;;-75
2023/03/19 11:31:51;;;;;;;;;;;;;;;10.64;96.13379;101548.6;;;;-74
2023/03/19 11:36:51;;;;;;;;;;;;;;;10.69;95.47168;101557.6;;;;-75
2023/03/19 11:38:21;;;;;;;33.8;11.5;;;;;;;;;;;;;-73
2023/03/19 11:41:56;;;;;;;;;;;;;;;10.72;95.1709;101560.2;;;;-72
2023/03/19 11:46:54;;;;;;;;;;;;;;;10.76;95.07813;101550.6;;;;-74
2023/03/19 11:51:50;;;;;;;;;;;;;;;10.8;95.16699;101553.6;;;;-74
2023/03/19 11:56:51;;;;;;;;;;;;;;;10.84;95.07324;101559.8;;;;-74
2023/03/19 12:02:05;;;;;;;;;;;;;;;10.85;94.72461;101563;;;;-73
2023/03/19 12:06:53;;;;;;;;;;;;;;;10.88;94.50977;101566.2;;;;-74
2023/03/19 12:08:22;;;;;;;33.7;13;;;;;;;;;;;;;-73
2023/03/19 12:11:52;;;;;;;;;;;;;;;10.9;94.41699;101569.1;;;;-73
2023/03/19 12:16:55;;;;;;;;;;;;;;;10.92;94.67188;101569;;;;-73
2023/03/19 12:21:52;;;;;;;;;;;;;;;10.93;94.39844;101569;;;;-74
2023/03/19 12:26:56;;;;;;;;;;;;;;;10.94;94.4668;101571.8;;;;-74
2023/03/19 12:31:55;;;;;;;;;;;;;;;10.95;94.29395;101578.7;;;;-74
2023/03/19 12:36:51;;;;;;;;;;;;;;;10.98;94.0459;101585.2;;;;-74
2023/03/19 12:38:22;;;;;;;36.5;13.1;;;;;;;;;;;;;-75
2023/03/19 12:41:50;;;;;;;;;;;;;;;10.98;94.37695;101581.4;;;;-74
2023/03/19 12:46:52;;;;;;;;;;;;;;;11;93.91992;101583.1;;;;-75
2023/03/19 12:51:52;;;;;;;;;;;;;;;11.03;93.90137;101587.5;;;;-74
2023/03/19 12:56:52;;;;;;;;;;;;;;;11.03;93.85742;101590.8;;;;-74
2023/03/19 13:01:51;;;;;;;;;;;;;;;11.04;93.89453;101591.8;;;;-74
2023/03/19 13:06:50;;;;;;;;;;;;;;;11.06;93.65527;101605.4;;;;-74
2023/03/19 13:08:23;;;;;;;36.1;13.7;;;;;;;;;;;;;-73
2023/03/19 13:11:52;;;;;;;;;;;;;;;11.1;93.69629;101612.8;;;;-74
2023/03/19 13:16:54;;;;;;;;;;;;;;;11.1;93.58789;101618.9;;;;-73
2023/03/19 13:21:49;;;;;;;;;;;;;;;11.11;93.19141;101622;;;;-74
2023/03/19 13:26:56;;;;;;;;;;;;;;;11.11;93.29004;101621.6;;;;-74
2023/03/19 13:31:49;;;;;;;;;;;;;;;11.1;92.90234;101628.8;;;;-74
2023/03/19 13:36:50;;;;;;;;;;;;;;;11.08;92.89844;101619.6;;;;-74
2023/03/19 13:38:23;;;;;;;35.1;13.3;;;;;;;;;;;;;-74
2023/03/19 13:42:09;;;;;;;;;;;;;;;11.08;92.71094;101620.2;;;;-74
2023/03/19 13:46:48;;;;;;;;;;;;;;;11.07;92.41992;101634.9;;;;-74
2023/03/19 13:51:48;;;;;;;;;;;;;;;11.05;92.34082;101634.7;;;;-73
2023/03/19 13:57:08;;;;;;;;;;;;;;;11.04;92.69141;101636.7;;;;-74
2023/03/19 14:01:48;;;;;;;;;;;;;;;11.04;92.54883;101647.6;;;;-74
2023/03/19 14:06:49;;;;;;;;;;;;;;;11.04;92.58008;101660.7;;;;-73
2023/03/19 14:08:25;;;;;;;27.5;11.5;;;;;;;;;;;;;-74
2023/03/19 14:11:48;;;;;;;;;;;;;;;11.03;92.3457;101665.5;;;;-74
2023/03/19 14:16:50;;;;;;;;;;;;;;;11.02;92.33301;101658.4;;;;-74
2023/03/19 14:21:49;;;;;;;;;;;;;;;11.02;92.31055;101660.7;;;;-73
2023/03/19 14:26:48;;;;;;;;;;;;;;;11;92.09961;101660.1;;;;-74
2023/03/19 14:31:52;;;;;;;;;;;;;;;10.99;92.33789;101662.9;;;;-74
2023/03/19 14:36:50;;;;;;;;;;;;;;;10.97;92.41211;101653.4;;;;-74
2023/03/19 14:38:31;;;;;;;24.3;10;;;;;;;;;;;;;-74
2023/03/19 14:42:03;;;;;;;;;;;;;;;10.95;92.41895;101640.1;;;;-73
2023/03/19 14:47:06;;;;;;;;;;;;;;;10.97;92.2793;101642.3;;;;-74
2023/03/19 14:52:11;;;;;;;;;;;;;;;11;92.27637;101649.5;;;;-74
2023/03/19 14:56:59;;;;;;;;;;;;;;;11.04;91.78516;101662.3;;;;-74
2023/03/19 15:01:52;;;;;;;;;;;;;;;11;91.81055;101663.8;;;;-73
2023/03/19 15:06:50;;;;;;;;;;;;;;;10.91;92.13379;101670.2;;;;-73
2023/03/19 15:08:27;;;;;;;21.6;9.5;;;;;;;;;;;;;-73
2023/03/19 15:12:01;;;;;;;;;;;;;;;10.84;92.33887;101680.5;;;;-74
2023/03/19 15:16:50;;;;;;;;;;;;;;;10.77;92.3584;101690;;;;-74
2023/03/19 15:21:50;;;;;;;;;;;;;;;10.71;92.42188;101695.1;;;;-74
2023/03/19 15:26:48;;;;;;;;;;;;;;;10.68;92.69238;101689.3;;;;-75
2023/03/19 15:31:50;;;;;;;;;;;;;;;10.63;92.75977;101689;;;;-73
2023/03/19 15:36:50;;;;;;;;;;;;;;;10.59;92.84961;101686.6;;;;-74
2023/03/19 15:38:33;;;;;;;23.7;9.6;;;;;;;;;;;;;-74
2023/03/19 15:41:52;;;;;;;;;;;;;;;10.55;92.74219;101679.8;;;;-73
2023/03/19 15:46:50;;;;;;;;;;;;;;;10.51;92.69922;101687.6;;;;-74
2023/03/19 15:51:52;;;;;;;;;;;;;;;10.48;92.89258;101680.4;;;;-74
2023/03/19 15:56:47;;;;;;;;;;;;;;;10.45;92.8291;101678.6;;;;-75
2023/03/19 16:01:48;;;;;;;;;;;;;;;10.43;92.94824;101680.7;;;;-73
2023/03/19 16:06:51;;;;;;;;;;;;;;;10.45;92.95313;101688.3;;;;-74
2023/03/19 16:08:29;;;;;;;23;9;;;;;;;;;;;;;-74
2023/03/19 16:11:48;;;;;;;;;;;;;;;10.44;92.9834;101698.1;;;;-73
2023/03/19 16:16:48;;;;;;;;;;;;;;;10.42;92.90137;101704.5;;;;-73
2023/03/19 16:21:49;;;;;;;;;;;;;;;10.39;92.83984;101712.3;;;;-74
2023/03/19 16:26:49;;;;;;;;;;;;;;;10.36;92.84473;101722.8;;;;-74
2023/03/19 16:31:50;;;;;;;;;;;;;;;10.33;92.80664;101738;;;;-72
2023/03/19 16:36:49;;;;;;;;;;;;;;;10.29;93.03906;101746.5;;;;-75
2023/03/19 16:38:31;;;;;;;19.8;8.2;;;;;;;;;;;;;-73
2023/03/19 16:41:57;;;;;;;;;;;;;;;10.26;93.09961;101754;;;;-73
2023/03/19 16:46:48;;;;;;;;;;;;;;;10.22;92.78125;101763.3;;;;-72
2023/03/19 16:51:48;;;;;;;;;;;;;;;10.17;93.25586;101770.3;;;;-73
2023/03/19 16:56:47;;;;;;;;;;;;;;;10.13;93.02832;101783.4;;;;-73
2023/03/19 17:01:47;;;;;;;;;;;;;;;10.08;93.02734;101788.4;;;;-74
2023/03/19 17:06:47;;;;;;;;;;;;;;;10.02;93.02734;101791.6;;;;-72
2023/03/19 17:08:33;;;;;;;18.1;7.2;;;;;;;;;;;;;-75
2023/03/19 17:11:52;;;;;;;;;;;;;;;9.97;92.82813;101797.5;;;;-74
2023/03/19 17:16:50;;;;;;;;;;;;;;;9.91;92.57227;101805.5;;;;-73
2023/03/19 17:21:48;;;;;;;;;;;;;;;9.84;92.43848;101808.7;;;;-73
2023/03/19 17:26:47;;;;;;;;;;;;;;;9.78;92.3916;101821.2;;;;-74
2023/03/19 17:31:50;;;;;;;;;;;;;;;9.72;92.08105;101831.7;;;;-73
2023/03/19 17:36:50;;;;;;;;;;;;;;;9.66;92.27832;101838.8;;;;-72
2023/03/19 17:38:35;;;;;;;14.1;6.1;;;;;;;;;;;;;-74
2023/03/19 17:41:47;;;;;;;;;;;;;;;9.59;92.07617;101843.4;;;;-74
2023/03/19 17:46:49;;;;;;;;;;;;;;;9.52;92.09375;101848.9;;;;-73
2023/03/19 17:51:53;;;;;;;;;;;;;;;9.47;92.55762;101855.8;;;;-73
2023/03/19 17:56:47;;;;;;;;;;;;;;;9.4;92.36621;101869.7;;;;-73
2023/03/19 18:01:48;;;;;;;;;;;;;;;9.34;92.09961;101873.5;;;;-74
2023/03/19 18:06:51;;;;;;;;;;;;;;;9.27;92.48145;101881.4;;;;-73
2023/03/19 18:08:34;;;;;;;9.5;4.6;;;;;;;;;;;;;-74
2023/03/19 18:11:47;;;;;;;;;;;;;;;9.24;92.35547;101879.8;;;;-73
2023/03/19 18:16:47;;;;;;;;;;;;;;;9.2;92.41113;101884.8;;;;-74
2023/03/19 18:21:47;;;;;;;;;;;;;;;9.13;92.78223;101882.9;;;;-73
2023/03/19 18:26:48;;;;;;;;;;;;;;;9.1;92.62109;101894.6;;;;-72
2023/03/19 18:31:51;;;;;;;;;;;;;;;9.05;92.61133;101902.6;;;;-73
2023/03/19 18:36:47;;;;;;;;;;;;;;;9.01;92.21875;101904.6;;;;-74
2023/03/19 18:38:35;;;;;;;8.9;4.2;;;;;;;;;;;;;-73
2023/03/19 18:41:47;;;;;;;;;;;;;;;8.97;92.58301;101905.3;;;;-73
2023/03/19 18:46:47;;;;;;;;;;;;;;;8.92;92.51855;101906.9;;;;-74
2023/03/19 18:51:47;;;;;;;;;;;;;;;8.89;92.77441;101915.9;;;;-74
2023/03/19 18:56:47;;;;;;;;;;;;;;;8.84;92.7207;101917.5;;;;-74
2023/03/19 19:01:47;;;;;;;;;;;;;;;8.8;92.59082;101918.1;;;;-73
2023/03/19 19:06:47;;;;;;;;;;;;;;;8.78;92.88281;101919.1;;;;-73
2023/03/19 19:08:37;;;;;;;9.4;3.6;;;;;;;;;;;;;-73
2023/03/19 19:11:48;;;;;;;;;;;;;;;8.74;93.09473;101918.9;;;;-73
2023/03/19 19:16:47;;;;;;;;;;;;;;;8.72;92.91309;101922.9;;;;-74
2023/03/19 19:21:47;;;;;;;;;;;;;;;8.67;92.95801;101920.4;;;;-72
2023/03/19 19:26:50;;;;;;;;;;;;;;;8.64;93.09473;101931;;;;-74
2023/03/19 19:31:47;;;;;;;;;;;;;;;8.62;92.90234;101934.3;;;;-73
2023/03/19 19:36:49;;;;;;;;;;;;;;;8.59;92.99805;101935.8;;;;-73
2023/03/19 19:38:38;;;;;;;9;3.8;;;;;;;;;;;;;-73
2023/03/19 19:41:47;;;;;;;;;;;;;;;8.56;93.14355;101938.6;;;;-73
2023/03/19 19:46:51;;;;;;;;;;;;;;;8.5;92.91016;101935.3;;;;-73
2023/03/19 19:51:47;;;;;;;;;;;;;;;8.47;92.9502;101947;;;;-73
2023/03/19 19:56:48;;;;;;;;;;;;;;;8.44;92.9541;101958.5;;;;-73
2023/03/19 20:01:47;;;;;;;;;;;;;;;8.4;93.06445;101969.4;;;;-74
2023/03/19 20:06:47;;;;;;;;;;;;;;;8.37;93.13574;101974.6;;;;-73
2023/03/19 20:08:39;;;;;;;7.2;2.9;;;;;;;;;;;;;-73
2023/03/19 20:11:49;;;;;;;;;;;;;;;8.34;93.21777;101976.3;;;;-73
2023/03/19 20:16:47;;;;;;;;;;;;;;;8.31;92.97949;101970;;;;-74
2023/03/19 20:21:49;;;;;;;;;;;;;;;8.29;92.86621;101967;;;;-75
2023/03/19 20:26:47;;;;;;;;;;;;;;;8.25;93.15234;101972.9;;;;-74
2023/03/19 20:31:48;;;;;;;;;;;;;;;8.23;92.67871;101974.4;;;;-75
2023/03/19 20:36:47;;;;;;;;;;;;;;;8.21;93.56152;101980.5;;;;-74
2023/03/19 20:38:40;;;;;;;8.5;2.9;;;;;;;;;;;;;-73
2023/03/19 20:41:48;;;;;;;;;;;;;;;8.18;93.48047;101990.3;;;;-73
2023/03/19 20:46:47;;;;;;;;;;;;;;;8.17;93.03809;101980.6;;;;-74
2023/03/19 20:51:47;;;;;;;;;;;;;;;8.16;93.16992;101984.9;;;;-73
2023/03/19 20:56:48;;;;;;;;;;;;;;;8.13;93.13086;101988.9;;;;-73
2023/03/19 21:01:47;;;;;;;;;;;;;;;8.11;93.39941;101988.9;;;;-73
2023/03/19 21:06:48;;;;;;;;;;;;;;;8.08;92.90918;101988.9;;;;-74
2023/03/19 21:08:42;;;;;;;10.1;3.2;;;;;;;;;;;;;-74
2023/03/19 21:11:48;;;;;;;;;;;;;;;8.06;93.45508;101987.7;;;;-73
2023/03/19 21:16:48;;;;;;;;;;;;;;;8.04;93.85449;101992;;;;-74
2023/03/19 21:21:47;;;;;;;;;;;;;;;8.02;93.84863;101996.8;;;;-76
2023/03/19 21:26:48;;;;;;;;;;;;;;;8;93.81152;101984.2;;;;-74
2023/03/19 21:31:47;;;;;;;;;;;;;;;7.99;93.88672;101984.4;;;;-74
2023/03/19 21:36:48;;;;;;;;;;;;;;;7.99;93.77734;101986.6;;;;-72
2023/03/19 21:38:42;;;;;;;7.2;2.7;;;;;;;;;;;;;-72
2023/03/19 21:41:49;;;;;;;;;;;;;;;7.98;93.28223;101992.6;;;;-73
2023/03/19 21:46:48;;;;;;;;;;;;;;;7.96;93.98145;101978.6;;;;-73
2023/03/19 21:51:48;;;;;;;;;;;;;;;7.95;93.90234;101978;;;;-73
2023/03/19 21:56:48;;;;;;;;;;;;;;;7.93;93.87305;101979.1;;;;-73
2023/03/19 22:01:47;;;;;;;;;;;;;;;7.94;93.81152;101986.1;;;;-73
2023/03/19 22:06:47;;;;;;;;;;;;;;;7.92;94.0791;101993.3;;;;-75
2023/03/19 22:08:43;;;;;;;7.8;2.8;;;;;;;;;;;;;-73
2023/03/19 22:11:47;;;;;;;;;;;;;;;7.89;93.7334;101995.6;;;;-73
2023/03/19 22:16:50;;;;;;;;;;;;;;;7.9;93.91113;101997.5;;;;-74
2023/03/19 22:21:50;;;;;;;;;;;;;;;7.88;93.95117;102005.5;;;;-74
2023/03/19 22:26:48;;;;;;;;;;;;;;;7.87;93.90527;102009.7;;;;-73
2023/03/19 22:31:48;;;;;;;;;;;;;;;7.86;93.9707;102026.1;;;;-73
2023/03/19 22:36:47;;;;;;;;;;;;;;;7.83;93.83301;102021.4;;;;-73
2023/03/19 22:38:47;;;;;;;9;2.8;;;;;;;;;;;;;-73
2023/03/19 22:41:49;;;;;;;;;;;;;;;7.84;94.01953;102006.8;;;;-73
2023/03/19 22:46:47;;;;;;;;;;;;;;;7.8;93.87988;102003.7;;;;-74
2023/03/19 22:51:47;;;;;;;;;;;;;;;7.82;93.82715;102004.2;;;;-72
2023/03/19 22:56:47;;;;;;;;;;;;;;;7.82;93.52246;102011;;;;-74
2023/03/19 23:01:49;;;;;;;;;;;;;;;7.83;93.53613;102010.3;;;;-74
2023/03/19 23:06:47;;;;;;;;;;;;;;;7.8;94.0752;102004.6;;;;-74
2023/03/19 23:08:45;;;;;;;7.8;2.2;;;;;;;;;;;;;-72
2023/03/19 23:11:47;;;;;;;;;;;;;;;7.78;94.13965;102002.9;;;;-74
2023/03/19 23:16:48;;;;;;;;;;;;;;;7.77;94.06055;101992.3;;;;-74
2023/03/19 23:21:49;;;;;;;;;;;;;;;7.76;94.07813;101985.8;;;;-73
2023/03/19 23:26:48;;;;;;;;;;;;;;;7.76;94.11328;101986.4;;;;-73
2023/03/19 23:31:47;;;;;;;;;;;;;;;7.75;94.01074;101982.7;;;;-73
2023/03/19 23:36:47;;;;;;;;;;;;;;;7.75;93.8252;101984.2;;;;-74
2023/03/19 23:38:46;;;;;;;6.3;2.1;;;;;;;;;;;;;-73
2023/03/19 23:41:51;;;;;;;;;;;;;;;7.74;93.68066;101995.2;;;;-74
2023/03/19 23:46:52;;;;;;;;;;;;;;;7.73;93.53418;101993.4;;;;-73
2023/03/19 23:51:47;;;;;;;;;;;;;;;7.73;94.125;101994.6;;;;-74
2023/03/19 23:56:47;;;;;;;;;;;;;;;7.72;93.56738;101995.7;;;;-73
